sensor_id;sensor_type;location;lat;lon;timestamp;P1;durP1;ratioP1;P2;durP2;ratioP2
36253;SDS011;22291;52.250;21.228;2023-01-16T00:02:25;84.28;;;78.02;;
36253;SDS011;22291;52.250;21.228;2023-01-16T00:04:53;81.45;;;75.67;;
36253;SDS011;22291;52.250;21.228;2023-01-16T00:07:19;84.32;;;78.28;;
36253;SDS011;22291;52.250;21.228;2023-01-16T00:09:45;80.53;;;75.08;;
36253;SDS011;22291;52.250;21.228;2023-01-16T00:12:11;81.25;;;75.47;;
36253;SDS011;22291;52.250;21.228;2023-01-16T00:14:38;82.20;;;76.42;;
36253;SDS011;22291;52.250;21.228;2023-01-16T00:17:06;82.40;;;76.75;;
36253;SDS011;22291;52.250;21.228;2023-01-16T00:19:32;83.42;;;77.58;;
36253;SDS011;22291;52.250;21.228;2023-01-16T00:21:59;80.45;;;74.90;;
36253;SDS011;22291;52.250;21.228;2023-01-16T00:24:26;83.85;;;77.78;;
36253;SDS011;22291;52.250;21.228;2023-01-16T00:26:53;81.87;;;76.15;;
36253;SDS011;22291;52.250;21.228;2023-01-16T00:29:20;82.70;;;76.97;;
36253;SDS011;22291;52.250;21.228;2023-01-16T00:31:47;80.97;;;75.08;;
36253;SDS011;22291;52.250;21.228;2023-01-16T00:34:14;80.30;;;74.72;;
36253;SDS011;22291;52.250;21.228;2023-01-16T00:36:40;80.20;;;74.53;;
36253;SDS011;22291;52.250;21.228;2023-01-16T00:39:06;81.42;;;75.72;;
36253;SDS011;22291;52.250;21.228;2023-01-16T00:41:33;81.00;;;75.35;;
36253;SDS011;22291;52.250;21.228;2023-01-16T00:44:00;82.42;;;76.35;;
36253;SDS011;22291;52.250;21.228;2023-01-16T00:46:26;82.62;;;76.75;;
36253;SDS011;22291;52.250;21.228;2023-01-16T00:48:55;81.90;;;76.12;;
36253;SDS011;22291;52.250;21.228;2023-01-16T00:51:23;83.22;;;77.30;;
36253;SDS011;22291;52.250;21.228;2023-01-16T00:53:51;82.10;;;76.17;;
36253;SDS011;22291;52.250;21.228;2023-01-16T00:56:17;84.80;;;78.78;;
36253;SDS011;22291;52.250;21.228;2023-01-16T00:58:43;82.62;;;76.50;;
36253;SDS011;22291;52.250;21.228;2023-01-16T01:01:11;83.00;;;76.97;;
36253;SDS011;22291;52.250;21.228;2023-01-16T01:03:37;82.53;;;76.62;;
36253;SDS011;22291;52.250;21.228;2023-01-16T01:06:08;82.30;;;76.50;;
36253;SDS011;22291;52.250;21.228;2023-01-16T01:08:39;82.40;;;75.83;;
36253;SDS011;22291;52.250;21.228;2023-01-16T01:11:09;81.53;;;75.87;;
36253;SDS011;22291;52.250;21.228;2023-01-16T01:13:39;83.40;;;77.20;;
36253;SDS011;22291;52.250;21.228;2023-01-16T01:16:07;81.80;;;75.90;;
36253;SDS011;22291;52.250;21.228;2023-01-16T01:18:36;82.90;;;76.97;;
36253;SDS011;22291;52.250;21.228;2023-01-16T01:21:05;82.92;;;77.10;;
36253;SDS011;22291;52.250;21.228;2023-01-16T01:23:32;81.63;;;75.70;;
36253;SDS011;22291;52.250;21.228;2023-01-16T01:26:04;81.57;;;75.85;;
36253;SDS011;22291;52.250;21.228;2023-01-16T01:28:37;83.62;;;77.53;;
36253;SDS011;22291;52.250;21.228;2023-01-16T01:31:06;82.80;;;76.87;;
36253;SDS011;22291;52.250;21.228;2023-01-16T01:33:37;82.47;;;76.60;;
36253;SDS011;22291;52.250;21.228;2023-01-16T01:36:06;83.45;;;77.42;;
36253;SDS011;22291;52.250;21.228;2023-01-16T01:38:34;84.07;;;77.90;;
36253;SDS011;22291;52.250;21.228;2023-01-16T01:41:03;83.35;;;77.32;;
36253;SDS011;22291;52.250;21.228;2023-01-16T01:43:43;85.42;;;79.15;;
36253;SDS011;22291;52.250;21.228;2023-01-16T01:46:19;84.35;;;78.25;;
36253;SDS011;22291;52.250;21.228;2023-01-16T01:48:58;85.28;;;78.72;;
36253;SDS011;22291;52.250;21.228;2023-01-16T01:51:34;84.75;;;78.65;;
36253;SDS011;22291;52.250;21.228;2023-01-16T01:54:04;82.22;;;76.33;;
36253;SDS011;22291;52.250;21.228;2023-01-16T01:56:36;82.30;;;76.28;;
36253;SDS011;22291;52.250;21.228;2023-01-16T01:59:25;84.47;;;78.57;;
36253;SDS011;22291;52.250;21.228;2023-01-16T02:01:58;83.42;;;77.20;;
36253;SDS011;22291;52.250;21.228;2023-01-16T02:04:30;85.67;;;79.67;;
36253;SDS011;22291;52.250;21.228;2023-01-16T02:07:06;83.40;;;77.47;;
36253;SDS011;22291;52.250;21.228;2023-01-16T02:09:33;83.60;;;77.45;;
36253;SDS011;22291;52.250;21.228;2023-01-16T02:14:35;84.42;;;78.42;;
36253;SDS011;22291;52.250;21.228;2023-01-16T02:17:10;82.42;;;76.62;;
36253;SDS011;22291;52.250;21.228;2023-01-16T02:22:51;83.25;;;77.15;;
36253;SDS011;22291;52.250;21.228;2023-01-16T02:39:35;85.57;;;79.25;;
36253;SDS011;22291;52.250;21.228;2023-01-16T02:50:37;83.97;;;77.67;;
36253;SDS011;22291;52.250;21.228;2023-01-16T02:53:17;83.60;;;77.60;;
36253;SDS011;22291;52.250;21.228;2023-01-16T02:55:52;84.70;;;78.60;;
36253;SDS011;22291;52.250;21.228;2023-01-16T02:58:25;86.22;;;79.80;;
36253;SDS011;22291;52.250;21.228;2023-01-16T03:00:59;82.92;;;76.77;;
36253;SDS011;22291;52.250;21.228;2023-01-16T03:03:40;86.97;;;80.53;;
36253;SDS011;22291;52.250;21.228;2023-01-16T03:23:02;83.90;;;77.58;;
36253;SDS011;22291;52.250;21.228;2023-01-16T03:25:45;82.62;;;76.50;;
36253;SDS011;22291;52.250;21.228;2023-01-16T03:36:56;84.50;;;78.30;;
36253;SDS011;22291;52.250;21.228;2023-01-16T03:39:56;84.85;;;78.45;;
36253;SDS011;22291;52.250;21.228;2023-01-16T03:42:22;86.45;;;79.97;;
36253;SDS011;22291;52.250;21.228;2023-01-16T03:44:55;84.03;;;77.82;;
36253;SDS011;22291;52.250;21.228;2023-01-16T03:47:28;86.30;;;79.90;;
36253;SDS011;22291;52.250;21.228;2023-01-16T03:50:00;83.17;;;77.10;;
36253;SDS011;22291;52.250;21.228;2023-01-16T03:52:32;83.35;;;77.00;;
36253;SDS011;22291;52.250;21.228;2023-01-16T03:55:07;83.65;;;77.47;;
36253;SDS011;22291;52.250;21.228;2023-01-16T03:58:06;84.32;;;78.02;;
36253;SDS011;22291;52.250;21.228;2023-01-16T04:00:43;83.40;;;77.10;;
36253;SDS011;22291;52.250;21.228;2023-01-16T04:03:16;87.08;;;80.45;;
36253;SDS011;22291;52.250;21.228;2023-01-16T04:05:55;85.70;;;79.22;;
36253;SDS011;22291;52.250;21.228;2023-01-16T04:08:33;85.35;;;79.12;;
36253;SDS011;22291;52.250;21.228;2023-01-16T04:11:05;84.58;;;78.00;;
36253;SDS011;22291;52.250;21.228;2023-01-16T04:13:35;85.50;;;79.22;;
36253;SDS011;22291;52.250;21.228;2023-01-16T04:16:07;85.00;;;78.87;;
36253;SDS011;22291;52.250;21.228;2023-01-16T04:18:38;84.55;;;78.35;;
36253;SDS011;22291;52.250;21.228;2023-01-16T04:21:06;82.30;;;76.22;;
36253;SDS011;22291;52.250;21.228;2023-01-16T04:23:34;84.80;;;78.42;;
36253;SDS011;22291;52.250;21.228;2023-01-16T04:26:04;83.72;;;77.53;;
36253;SDS011;22291;52.250;21.228;2023-01-16T04:28:30;83.60;;;77.20;;
36253;SDS011;22291;52.250;21.228;2023-01-16T04:30:58;83.90;;;77.60;;
36253;SDS011;22291;52.250;21.228;2023-01-16T04:33:24;85.50;;;79.00;;
36253;SDS011;22291;52.250;21.228;2023-01-16T04:35:52;83.45;;;77.25;;
36253;SDS011;22291;52.250;21.228;2023-01-16T04:38:19;84.55;;;78.33;;
36253;SDS011;22291;52.250;21.228;2023-01-16T04:40:45;84.60;;;78.15;;
36253;SDS011;22291;52.250;21.228;2023-01-16T04:43:11;83.30;;;76.97;;
36253;SDS011;22291;52.250;21.228;2023-01-16T04:45:40;83.95;;;77.37;;
36253;SDS011;22291;52.250;21.228;2023-01-16T04:48:07;84.10;;;78.00;;
36253;SDS011;22291;52.250;21.228;2023-01-16T04:50:35;84.55;;;78.42;;
36253;SDS011;22291;52.250;21.228;2023-01-16T04:53:01;83.45;;;77.25;;
36253;SDS011;22291;52.250;21.228;2023-01-16T04:55:27;84.22;;;77.80;;
36253;SDS011;22291;52.250;21.228;2023-01-16T04:57:53;85.30;;;78.60;;
36253;SDS011;22291;52.250;21.228;2023-01-16T05:00:21;86.10;;;79.45;;
36253;SDS011;22291;52.250;21.228;2023-01-16T05:02:47;83.15;;;77.17;;
36253;SDS011;22291;52.250;21.228;2023-01-16T05:05:14;87.33;;;80.87;;
36253;SDS011;22291;52.250;21.228;2023-01-16T05:07:41;84.75;;;78.57;;
36253;SDS011;22291;52.250;21.228;2023-01-16T05:10:09;83.22;;;77.12;;
36253;SDS011;22291;52.250;21.228;2023-01-16T05:12:36;85.38;;;79.07;;
36253;SDS011;22291;52.250;21.228;2023-01-16T05:15:04;85.10;;;78.60;;
36253;SDS011;22291;52.250;21.228;2023-01-16T05:19:58;80.20;;;74.30;;
36253;SDS011;22291;52.250;21.228;2023-01-16T05:22:24;84.35;;;78.20;;
36253;SDS011;22291;52.250;21.228;2023-01-16T05:24:50;82.27;;;76.22;;
36253;SDS011;22291;52.250;21.228;2023-01-16T05:27:16;85.83;;;79.37;;
36253;SDS011;22291;52.250;21.228;2023-01-16T05:29:42;84.43;;;78.23;;
36253;SDS011;22291;52.250;21.228;2023-01-16T05:32:08;82.92;;;76.77;;
36253;SDS011;22291;52.250;21.228;2023-01-16T05:34:34;84.60;;;78.30;;
36253;SDS011;22291;52.250;21.228;2023-01-16T05:37:01;84.80;;;78.40;;
36253;SDS011;22291;52.250;21.228;2023-01-16T05:39:28;86.42;;;79.90;;
36253;SDS011;22291;52.250;21.228;2023-01-16T05:41:54;84.67;;;78.40;;
36253;SDS011;22291;52.250;21.228;2023-01-16T05:44:20;84.85;;;78.47;;
36253;SDS011;22291;52.250;21.228;2023-01-16T05:46:48;84.07;;;77.75;;
36253;SDS011;22291;52.250;21.228;2023-01-16T05:49:16;85.28;;;79.07;;
36253;SDS011;22291;52.250;21.228;2023-01-16T05:51:42;85.17;;;78.40;;
36253;SDS011;22291;52.250;21.228;2023-01-16T05:54:10;84.47;;;78.28;;
36253;SDS011;22291;52.250;21.228;2023-01-16T05:56:37;60.23;;;55.43;;
36253;SDS011;22291;52.250;21.228;2023-01-16T05:59:05;87.53;;;80.92;;
36253;SDS011;22291;52.250;21.228;2023-01-16T06:01:34;84.22;;;77.92;;
36253;SDS011;22291;52.250;21.228;2023-01-16T06:04:00;85.55;;;79.07;;
36253;SDS011;22291;52.250;21.228;2023-01-16T06:06:28;87.08;;;80.55;;
36253;SDS011;22291;52.250;21.228;2023-01-16T06:08:54;84.50;;;78.20;;
36253;SDS011;22291;52.250;21.228;2023-01-16T06:11:20;88.58;;;81.92;;
36253;SDS011;22291;52.250;21.228;2023-01-16T06:13:46;87.55;;;80.67;;
36253;SDS011;22291;52.250;21.228;2023-01-16T06:16:12;86.60;;;80.05;;
36253;SDS011;22291;52.250;21.228;2023-01-16T06:18:39;84.13;;;77.92;;
36253;SDS011;22291;52.250;21.228;2023-01-16T06:21:05;83.15;;;77.12;;
36253;SDS011;22291;52.250;21.228;2023-01-16T06:23:31;85.90;;;79.47;;
36253;SDS011;22291;52.250;21.228;2023-01-16T06:25:57;83.90;;;77.60;;
36253;SDS011;22291;52.250;21.228;2023-01-16T06:28:23;86.03;;;79.47;;
36253;SDS011;22291;52.250;21.228;2023-01-16T06:30:50;87.75;;;81.08;;
36253;SDS011;22291;52.250;21.228;2023-01-16T06:33:18;84.80;;;78.45;;
36253;SDS011;22291;52.250;21.228;2023-01-16T06:35:46;85.30;;;79.00;;
36253;SDS011;22291;52.250;21.228;2023-01-16T06:38:14;84.67;;;78.30;;
36253;SDS011;22291;52.250;21.228;2023-01-16T06:40:40;86.22;;;79.53;;
36253;SDS011;22291;52.250;21.228;2023-01-16T06:43:08;88.33;;;81.78;;
36253;SDS011;22291;52.250;21.228;2023-01-16T06:45:34;84.77;;;78.47;;
36253;SDS011;22291;52.250;21.228;2023-01-16T06:48:01;84.07;;;77.90;;
36253;SDS011;22291;52.250;21.228;2023-01-16T06:50:29;90.77;;;83.67;;
36253;SDS011;22291;52.250;21.228;2023-01-16T06:52:55;83.10;;;76.90;;
36253;SDS011;22291;52.250;21.228;2023-01-16T06:55:23;85.60;;;79.30;;
36253;SDS011;22291;52.250;21.228;2023-01-16T06:57:49;85.72;;;79.30;;
36253;SDS011;22291;52.250;21.228;2023-01-16T07:00:17;89.40;;;82.67;;
36253;SDS011;22291;52.250;21.228;2023-01-16T07:02:50;86.30;;;79.70;;
36253;SDS011;22291;52.250;21.228;2023-01-16T07:05:21;87.45;;;80.75;;
36253;SDS011;22291;52.250;21.228;2023-01-16T07:07:53;83.95;;;77.92;;
36253;SDS011;22291;52.250;21.228;2023-01-16T07:10:22;90.00;;;83.22;;
36253;SDS011;22291;52.250;21.228;2023-01-16T07:12:51;86.93;;;80.43;;
36253;SDS011;22291;52.250;21.228;2023-01-16T07:15:19;88.17;;;81.45;;
36253;SDS011;22291;52.250;21.228;2023-01-16T07:18:08;83.65;;;77.40;;
36253;SDS011;22291;52.250;21.228;2023-01-16T07:21:03;82.70;;;76.70;;
36253;SDS011;22291;52.250;21.228;2023-01-16T07:23:56;87.33;;;80.72;;
36253;SDS011;22291;52.250;21.228;2023-01-16T07:26:36;84.07;;;77.82;;
36253;SDS011;22291;52.250;21.228;2023-01-16T07:29:07;84.92;;;78.57;;
36253;SDS011;22291;52.250;21.228;2023-01-16T07:31:35;84.75;;;78.40;;
36253;SDS011;22291;52.250;21.228;2023-01-16T07:34:04;83.82;;;77.60;;
36253;SDS011;22291;52.250;21.228;2023-01-16T07:36:30;88.80;;;81.82;;
36253;SDS011;22291;52.250;21.228;2023-01-16T07:38:56;87.35;;;80.35;;
36253;SDS011;22291;52.250;21.228;2023-01-16T07:41:22;87.40;;;80.75;;
36253;SDS011;22291;52.250;21.228;2023-01-16T07:43:49;86.22;;;79.32;;
36253;SDS011;22291;52.250;21.228;2023-01-16T07:46:18;88.07;;;81.53;;
36253;SDS011;22291;52.250;21.228;2023-01-16T07:48:46;90.12;;;83.22;;
36253;SDS011;22291;52.250;21.228;2023-01-16T07:51:12;87.42;;;80.55;;
36253;SDS011;22291;52.250;21.228;2023-01-16T07:53:38;85.83;;;79.45;;
36253;SDS011;22291;52.250;21.228;2023-01-16T07:56:06;86.05;;;79.55;;
36253;SDS011;22291;52.250;21.228;2023-01-16T07:58:33;86.75;;;80.32;;
36253;SDS011;22291;52.250;21.228;2023-01-16T08:00:59;85.25;;;78.97;;
36253;SDS011;22291;52.250;21.228;2023-01-16T08:03:27;85.72;;;79.37;;
36253;SDS011;22291;52.250;21.228;2023-01-16T08:05:58;84.90;;;78.47;;
36253;SDS011;22291;52.250;21.228;2023-01-16T08:08:24;86.40;;;80.20;;
36253;SDS011;22291;52.250;21.228;2023-01-16T08:10:54;84.17;;;77.92;;
36253;SDS011;22291;52.250;21.228;2023-01-16T08:13:23;84.70;;;78.50;;
36253;SDS011;22291;52.250;21.228;2023-01-16T08:15:52;83.78;;;77.30;;
36253;SDS011;22291;52.250;21.228;2023-01-16T08:18:21;90.77;;;83.92;;
36253;SDS011;22291;52.250;21.228;2023-01-16T08:20:48;83.90;;;77.27;;
36253;SDS011;22291;52.250;21.228;2023-01-16T08:23:17;86.55;;;79.97;;
36253;SDS011;22291;52.250;21.228;2023-01-16T08:25:43;87.78;;;81.00;;
36253;SDS011;22291;52.250;21.228;2023-01-16T08:28:09;84.30;;;78.00;;
36253;SDS011;22291;52.250;21.228;2023-01-16T08:30:35;84.47;;;78.00;;
36253;SDS011;22291;52.250;21.228;2023-01-16T08:33:02;84.37;;;77.42;;
36253;SDS011;22291;52.250;21.228;2023-01-16T08:35:30;85.57;;;78.90;;
36253;SDS011;22291;52.250;21.228;2023-01-16T08:37:56;83.52;;;77.25;;
36253;SDS011;22291;52.250;21.228;2023-01-16T08:40:23;88.03;;;81.37;;
36253;SDS011;22291;52.250;21.228;2023-01-16T08:42:50;83.25;;;77.05;;
36253;SDS011;22291;52.250;21.228;2023-01-16T08:45:34;84.83;;;78.22;;
36253;SDS011;22291;52.250;21.228;2023-01-16T08:48:22;86.90;;;80.50;;
36253;SDS011;22291;52.250;21.228;2023-01-16T08:51:13;84.15;;;77.87;;
36253;SDS011;22291;52.250;21.228;2023-01-16T08:53:47;82.27;;;76.12;;
36253;SDS011;22291;52.250;21.228;2023-01-16T08:56:19;87.78;;;81.12;;
36253;SDS011;22291;52.250;21.228;2023-01-16T08:58:48;83.37;;;77.05;;
36253;SDS011;22291;52.250;21.228;2023-01-16T09:01:16;86.20;;;79.90;;
36253;SDS011;22291;52.250;21.228;2023-01-16T09:03:45;83.23;;;77.10;;
36253;SDS011;22291;52.250;21.228;2023-01-16T09:06:14;83.55;;;77.22;;
36253;SDS011;22291;52.250;21.228;2023-01-16T09:08:42;81.75;;;75.70;;
36253;SDS011;22291;52.250;21.228;2023-01-16T09:11:08;84.65;;;78.17;;
36253;SDS011;22291;52.250;21.228;2023-01-16T09:13:56;83.15;;;76.95;;
36253;SDS011;22291;52.250;21.228;2023-01-16T09:16:26;87.78;;;81.32;;
36253;SDS011;22291;52.250;21.228;2023-01-16T09:18:54;82.60;;;76.60;;
36253;SDS011;22291;52.250;21.228;2023-01-16T09:21:22;84.62;;;78.20;;
36253;SDS011;22291;52.250;21.228;2023-01-16T09:23:50;83.17;;;76.77;;
36253;SDS011;22291;52.250;21.228;2023-01-16T09:26:20;85.42;;;79.10;;
36253;SDS011;22291;52.250;21.228;2023-01-16T09:28:48;83.87;;;77.53;;
36253;SDS011;22291;52.250;21.228;2023-01-16T09:31:14;86.22;;;79.70;;
36253;SDS011;22291;52.250;21.228;2023-01-16T09:33:44;84.20;;;77.80;;
36253;SDS011;22291;52.250;21.228;2023-01-16T09:36:18;90.50;;;83.47;;
36253;SDS011;22291;52.250;21.228;2023-01-16T09:38:44;84.80;;;78.10;;
36253;SDS011;22291;52.250;21.228;2023-01-16T09:41:13;82.93;;;76.93;;
36253;SDS011;22291;52.250;21.228;2023-01-16T09:43:59;84.03;;;77.78;;
36253;SDS011;22291;52.250;21.228;2023-01-16T09:46:35;86.87;;;79.77;;
36253;SDS011;22291;52.250;21.228;2023-01-16T09:49:21;86.30;;;79.72;;
36253;SDS011;22291;52.250;21.228;2023-01-16T09:51:56;87.12;;;80.22;;
36253;SDS011;22291;52.250;21.228;2023-01-16T09:54:48;85.12;;;78.72;;
36253;SDS011;22291;52.250;21.228;2023-01-16T09:57:41;85.65;;;78.95;;
36253;SDS011;22291;52.250;21.228;2023-01-16T10:00:27;89.65;;;82.55;;
36253;SDS011;22291;52.250;21.228;2023-01-16T10:02:56;19.92;;;10.15;;
36253;SDS011;22291;52.250;21.228;2023-01-16T10:05:26;17.05;;;10.43;;
36253;SDS011;22291;52.250;21.228;2023-01-16T10:10:41;20.77;;;11.33;;
36253;SDS011;22291;52.250;21.228;2023-01-16T10:13:34;19.15;;;11.22;;
36253;SDS011;22291;52.250;21.228;2023-01-16T10:16:29;20.02;;;10.90;;
36253;SDS011;22291;52.250;21.228;2023-01-16T10:30:31;23.07;;;11.03;;
36253;SDS011;22291;52.250;21.228;2023-01-16T10:35:44;23.40;;;10.58;;
36253;SDS011;22291;52.250;21.228;2023-01-16T10:41:13;22.00;;;11.33;;
36253;SDS011;22291;52.250;21.228;2023-01-16T10:47:15;20.43;;;11.28;;
36253;SDS011;22291;52.250;21.228;2023-01-16T10:50:07;22.10;;;11.35;;
36253;SDS011;22291;52.250;21.228;2023-01-16T10:52:35;24.18;;;12.18;;
36253;SDS011;22291;52.250;21.228;2023-01-16T10:55:05;14.68;;;7.97;;
36253;SDS011;22291;52.250;21.228;2023-01-16T10:57:34;24.15;;;14.03;;
36253;SDS011;22291;52.250;21.228;2023-01-16T11:00:14;24.92;;;15.25;;
36253;SDS011;22291;52.250;21.228;2023-01-16T11:02:42;32.98;;;29.55;;
36253;SDS011;22291;52.250;21.228;2023-01-16T11:08:34;72.92;;;66.92;;
36253;SDS011;22291;52.250;21.228;2023-01-16T11:10:49;40.20;;;34.70;;
36253;SDS011;22291;52.250;21.228;2023-01-16T11:13:19;45.65;;;41.83;;
36253;SDS011;22291;52.250;21.228;2023-01-16T11:16:17;62.08;;;57.10;;
36253;SDS011;22291;52.250;21.228;2023-01-16T11:19:22;79.75;;;73.72;;
36253;SDS011;22291;52.250;21.228;2023-01-16T11:21:56;88.40;;;81.53;;
36253;SDS011;22291;52.250;21.228;2023-01-16T11:24:38;69.62;;;63.95;;
36253;SDS011;22291;52.250;21.228;2023-01-16T11:27:07;52.23;;;47.70;;
36253;SDS011;22291;52.250;21.228;2023-01-16T11:29:39;65.03;;;58.85;;
36253;SDS011;22291;52.250;21.228;2023-01-16T11:32:11;65.22;;;60.05;;
36253;SDS011;22291;52.250;21.228;2023-01-16T11:34:44;88.58;;;81.47;;
36253;SDS011;22291;52.250;21.228;2023-01-16T11:37:15;87.55;;;80.53;;
36253;SDS011;22291;52.250;21.228;2023-01-16T11:39:42;88.27;;;81.35;;
36253;SDS011;22291;52.250;21.228;2023-01-16T11:42:17;87.85;;;81.02;;
36253;SDS011;22291;52.250;21.228;2023-01-16T11:45:11;87.35;;;80.35;;
36253;SDS011;22291;52.250;21.228;2023-01-16T11:47:58;88.00;;;81.20;;
36253;SDS011;22291;52.250;21.228;2023-01-16T11:50:32;88.33;;;81.45;;
36253;SDS011;22291;52.250;21.228;2023-01-16T11:53:02;86.90;;;80.38;;
36253;SDS011;22291;52.250;21.228;2023-01-16T11:55:36;86.70;;;79.90;;
36253;SDS011;22291;52.250;21.228;2023-01-16T12:06:39;90.17;;;83.27;;
36253;SDS011;22291;52.250;21.228;2023-01-16T12:09:22;88.78;;;81.87;;
36253;SDS011;22291;52.250;21.228;2023-01-16T12:12:09;87.00;;;80.35;;
36253;SDS011;22291;52.250;21.228;2023-01-16T12:18:00;87.42;;;80.17;;
36253;SDS011;22291;52.250;21.228;2023-01-16T12:29:27;86.45;;;79.77;;
36253;SDS011;22291;52.250;21.228;2023-01-16T12:37:48;87.50;;;80.50;;
36253;SDS011;22291;52.250;21.228;2023-01-16T12:40:47;88.80;;;81.97;;
36253;SDS011;22291;52.250;21.228;2023-01-16T12:44:18;89.00;;;81.82;;
36253;SDS011;22291;52.250;21.228;2023-01-16T12:49:57;87.67;;;80.75;;
36253;SDS011;22291;52.250;21.228;2023-01-16T12:56:13;88.40;;;81.20;;
36253;SDS011;22291;52.250;21.228;2023-01-16T12:58:24;89.60;;;82.10;;
36253;SDS011;22291;52.250;21.228;2023-01-16T13:01:03;92.55;;;84.77;;
36253;SDS011;22291;52.250;21.228;2023-01-16T13:09:15;89.07;;;81.70;;
36253;SDS011;22291;52.250;21.228;2023-01-16T13:12:03;89.47;;;82.45;;
36253;SDS011;22291;52.250;21.228;2023-01-16T13:15:22;90.70;;;83.30;;
36253;SDS011;22291;52.250;21.228;2023-01-16T13:17:58;90.35;;;82.70;;
36253;SDS011;22291;52.250;21.228;2023-01-16T13:20:34;87.65;;;80.60;;
36253;SDS011;22291;52.250;21.228;2023-01-16T13:23:39;88.15;;;81.02;;
36253;SDS011;22291;52.250;21.228;2023-01-16T13:25:43;92.22;;;84.30;;
36253;SDS011;22291;52.250;21.228;2023-01-16T13:31:14;88.97;;;81.70;;
36253;SDS011;22291;52.250;21.228;2023-01-16T13:33:43;91.75;;;83.82;;
36253;SDS011;22291;52.250;21.228;2023-01-16T13:42:15;90.07;;;82.30;;
36253;SDS011;22291;52.250;21.228;2023-01-16T13:44:48;93.10;;;84.77;;
36253;SDS011;22291;52.250;21.228;2023-01-16T13:47:38;89.22;;;81.53;;
36253;SDS011;22291;52.250;21.228;2023-01-16T13:53:03;92.33;;;84.32;;
36253;SDS011;22291;52.250;21.228;2023-01-16T13:58:25;89.92;;;82.42;;
36253;SDS011;22291;52.250;21.228;2023-01-16T14:00:58;93.60;;;85.32;;
36253;SDS011;22291;52.250;21.228;2023-01-16T14:03:31;93.00;;;84.62;;
36253;SDS011;22291;52.250;21.228;2023-01-16T14:09:06;95.47;;;86.53;;
36253;SDS011;22291;52.250;21.228;2023-01-16T14:14:30;93.30;;;85.15;;
36253;SDS011;22291;52.250;21.228;2023-01-16T14:17:25;92.78;;;84.87;;
36253;SDS011;22291;52.250;21.228;2023-01-16T14:19:59;93.58;;;85.45;;
36253;SDS011;22291;52.250;21.228;2023-01-16T14:22:34;94.52;;;86.08;;
36253;SDS011;22291;52.250;21.228;2023-01-16T14:25:26;73.00;;;65.80;;
36253;SDS011;22291;52.250;21.228;2023-01-16T14:28:00;45.58;;;24.85;;
36253;SDS011;22291;52.250;21.228;2023-01-16T14:30:31;46.92;;;23.67;;
36253;SDS011;22291;52.250;21.228;2023-01-16T14:33:03;42.38;;;22.67;;
36253;SDS011;22291;52.250;21.228;2023-01-16T14:35:50;39.70;;;22.87;;
36253;SDS011;22291;52.250;21.228;2023-01-16T14:38:19;43.83;;;23.02;;
36253;SDS011;22291;52.250;21.228;2023-01-16T14:40:50;38.80;;;19.45;;
36253;SDS011;22291;52.250;21.228;2023-01-16T14:44:27;43.17;;;20.10;;
36253;SDS011;22291;52.250;21.228;2023-01-16T14:46:52;34.83;;;18.17;;
36253;SDS011;22291;52.250;21.228;2023-01-16T14:52:47;36.17;;;17.12;;
36253;SDS011;22291;52.250;21.228;2023-01-16T14:55:47;45.15;;;21.52;;
36253;SDS011;22291;52.250;21.228;2023-01-16T14:58:13;42.08;;;27.82;;
36253;SDS011;22291;52.250;21.228;2023-01-16T15:00:44;88.90;;;80.45;;
36253;SDS011;22291;52.250;21.228;2023-01-16T15:03:20;96.20;;;87.60;;
36253;SDS011;22291;52.250;21.228;2023-01-16T15:05:49;99.62;;;90.80;;
36253;SDS011;22291;52.250;21.228;2023-01-16T15:08:26;98.72;;;89.77;;
36253;SDS011;22291;52.250;21.228;2023-01-16T15:10:53;97.90;;;89.13;;
36253;SDS011;22291;52.250;21.228;2023-01-16T15:13:29;96.55;;;88.15;;
36253;SDS011;22291;52.250;21.228;2023-01-16T15:16:02;97.47;;;88.35;;
36253;SDS011;22291;52.250;21.228;2023-01-16T15:18:41;95.95;;;87.55;;
36253;SDS011;22291;52.250;21.228;2023-01-16T15:21:27;95.38;;;87.02;;
36253;SDS011;22291;52.250;21.228;2023-01-16T15:24:14;95.15;;;86.50;;
36253;SDS011;22291;52.250;21.228;2023-01-16T15:26:51;92.70;;;84.67;;
36253;SDS011;22291;52.250;21.228;2023-01-16T15:32:14;90.53;;;82.95;;
36253;SDS011;22291;52.250;21.228;2023-01-16T15:34:44;93.60;;;85.50;;
36253;SDS011;22291;52.250;21.228;2023-01-16T15:37:17;92.02;;;84.37;;
36253;SDS011;22291;52.250;21.228;2023-01-16T15:39:48;88.65;;;81.65;;
36253;SDS011;22291;52.250;21.228;2023-01-16T15:42:18;91.12;;;83.62;;
36253;SDS011;22291;52.250;21.228;2023-01-16T15:51:09;92.00;;;84.35;;
36253;SDS011;22291;52.250;21.228;2023-01-16T15:53:40;90.95;;;83.10;;
36253;SDS011;22291;52.250;21.228;2023-01-16T15:56:18;94.47;;;86.37;;
36253;SDS011;22291;52.250;21.228;2023-01-16T15:58:51;92.00;;;84.07;;
36253;SDS011;22291;52.250;21.228;2023-01-16T16:01:31;93.90;;;85.20;;
36253;SDS011;22291;52.250;21.228;2023-01-16T16:04:00;92.92;;;84.77;;
36253;SDS011;22291;52.250;21.228;2023-01-16T16:06:29;92.67;;;84.52;;
36253;SDS011;22291;52.250;21.228;2023-01-16T16:09:01;90.30;;;82.02;;
36253;SDS011;22291;52.250;21.228;2023-01-16T16:11:31;93.87;;;85.70;;
36253;SDS011;22291;52.250;21.228;2023-01-16T16:14:28;94.15;;;85.85;;
36253;SDS011;22291;52.250;21.228;2023-01-16T16:20:24;59.48;;;53.63;;
36253;SDS011;22291;52.250;21.228;2023-01-16T16:25:58;35.40;;;17.25;;
36253;SDS011;22291;52.250;21.228;2023-01-16T16:28:34;31.90;;;16.70;;
36253;SDS011;22291;52.250;21.228;2023-01-16T16:31:06;33.38;;;17.95;;
36253;SDS011;22291;52.250;21.228;2023-01-16T16:34:01;33.70;;;17.05;;
36253;SDS011;22291;52.250;21.228;2023-01-16T16:36:46;36.55;;;20.88;;
36253;SDS011;22291;52.250;21.228;2023-01-16T16:39:30;31.85;;;18.48;;
36253;SDS011;22291;52.250;21.228;2023-01-16T16:42:18;38.05;;;17.77;;
36253;SDS011;22291;52.250;21.228;2023-01-16T16:47:45;39.35;;;19.10;;
36253;SDS011;22291;52.250;21.228;2023-01-16T16:53:03;35.48;;;17.57;;
36253;SDS011;22291;52.250;21.228;2023-01-16T16:55:42;36.98;;;19.27;;
36253;SDS011;22291;52.250;21.228;2023-01-16T16:58:23;30.60;;;16.75;;
36253;SDS011;22291;52.250;21.228;2023-01-16T17:00:53;36.28;;;17.95;;
36253;SDS011;22291;52.250;21.228;2023-01-16T17:03:21;32.75;;;17.00;;
36253;SDS011;22291;52.250;21.228;2023-01-16T17:05:51;32.93;;;17.82;;
36253;SDS011;22291;52.250;21.228;2023-01-16T17:08:29;31.37;;;16.15;;
36253;SDS011;22291;52.250;21.228;2023-01-16T17:10:53;31.25;;;16.90;;
36253;SDS011;22291;52.250;21.228;2023-01-16T17:13:23;32.03;;;16.27;;
36253;SDS011;22291;52.250;21.228;2023-01-16T17:15:53;36.70;;;18.32;;
36253;SDS011;22291;52.250;21.228;2023-01-16T17:18:25;33.42;;;17.10;;
36253;SDS011;22291;52.250;21.228;2023-01-16T17:20:53;33.58;;;16.30;;
36253;SDS011;22291;52.250;21.228;2023-01-16T17:23:26;34.10;;;17.00;;
36253;SDS011;22291;52.250;21.228;2023-01-16T17:25:54;35.17;;;17.50;;
36253;SDS011;22291;52.250;21.228;2023-01-16T17:28:20;32.42;;;17.62;;